createdAt,value
2022-10-21T00:00:19.163Z,2.17
2022-10-21T00:02:46.445Z,2.57
2022-10-21T00:05:13.829Z,2.37
2022-10-21T00:07:41.082Z,2.60
2022-10-21T00:10:08.788Z,2.60
2022-10-21T00:12:36.965Z,2.70
2022-10-21T00:15:08.661Z,2.50
2022-10-21T00:17:37.509Z,2.63
2022-10-21T00:20:06.548Z,2.27
2022-10-21T00:22:33.751Z,2.57
2022-10-21T00:25:00.769Z,2.43
2022-10-21T00:27:27.831Z,2.40
2022-10-21T00:29:54.778Z,2.30
2022-10-21T00:32:21.779Z,2.40
2022-10-21T00:34:49.051Z,2.60
2022-10-21T00:37:17.558Z,2.47
2022-10-21T00:39:44.808Z,2.30
2022-10-21T00:42:21.719Z,2.37
2022-10-21T00:45:08.833Z,2.60
2022-10-21T00:47:45.539Z,2.20
2022-10-21T00:51:02.881Z,2.50
2022-10-21T00:53:30.781Z,2.30
2022-10-21T00:56:03.959Z,2.30
2022-10-21T00:58:33.781Z,2.33
2022-10-21T01:01:03.762Z,2.60
2022-10-21T01:03:32.264Z,2.47
2022-10-21T01:06:02.309Z,2.63
2022-10-21T01:08:30.070Z,2.70
2022-10-21T01:10:58.112Z,2.77
2022-10-21T01:14:02.748Z,2.30
2022-10-21T01:16:36.584Z,2.60
2022-10-21T01:19:12.984Z,2.10
2022-10-21T01:21:50.853Z,2.27
2022-10-21T01:24:36.441Z,2.40
2022-10-21T01:27:21.895Z,2.40
2022-10-21T01:30:24.639Z,2.60
2022-10-21T01:35:46.059Z,2.30
2022-10-21T01:38:34.644Z,2.40
2022-10-21T01:41:14.205Z,2.20
2022-10-21T01:43:48.244Z,2.30
2022-10-21T01:46:34.266Z,2.30
2022-10-21T01:49:20.182Z,2.33
2022-10-21T01:51:48.217Z,2.90
2022-10-21T01:54:26.433Z,2.30
2022-10-21T01:56:54.694Z,2.23
2022-10-21T01:59:25.345Z,2.60
2022-10-21T02:01:55.549Z,2.30
2022-10-21T02:04:24.564Z,2.43
2022-10-21T02:06:51.834Z,2.40
2022-10-21T02:09:19.089Z,2.10
2022-10-21T02:11:50.670Z,2.13
2022-10-21T02:14:25.118Z,2.50
2022-10-21T02:16:54.270Z,2.30
2022-10-21T02:19:21.905Z,2.23
2022-10-21T02:21:52.610Z,2.10
2022-10-21T02:24:44.904Z,2.37
2022-10-21T02:27:12.213Z,2.30
2022-10-21T02:29:42.548Z,2.53
2022-10-21T02:32:35.855Z,2.80
2022-10-21T02:35:41.889Z,2.60
2022-10-21T02:38:29.645Z,2.40
2022-10-21T02:41:01.163Z,2.20
2022-10-21T02:43:35.942Z,2.27
2022-10-21T02:46:11.441Z,2.60
2022-10-21T02:48:40.921Z,2.40
2022-10-21T02:51:08.669Z,2.40
2022-10-21T02:53:36.706Z,2.20
2022-10-21T02:56:03.991Z,2.40
2022-10-21T02:58:31.331Z,2.20
2022-10-21T03:00:58.845Z,2.40
2022-10-21T03:03:26.157Z,2.23
2022-10-21T03:05:53.411Z,2.47
2022-10-21T03:08:20.418Z,2.63
2022-10-21T03:10:53.137Z,2.40
2022-10-21T03:13:21.731Z,2.40
2022-10-21T03:15:50.252Z,2.10
2022-10-21T03:18:17.778Z,2.43
2022-10-21T03:20:45.132Z,2.50
2022-10-21T03:23:12.048Z,2.20
2022-10-21T03:25:38.972Z,2.27
2022-10-21T03:28:06.113Z,2.10
2022-10-21T03:30:33.175Z,2.20
2022-10-21T03:33:00.290Z,2.13
2022-10-21T03:35:28.056Z,2.30
2022-10-21T03:37:55.154Z,2.30
2022-10-21T03:40:23.973Z,2.00
2022-10-21T03:42:51.052Z,2.07
2022-10-21T03:45:18.209Z,2.37
2022-10-21T03:47:46.950Z,2.27
2022-10-21T03:50:16.485Z,2.27
2022-10-21T03:52:48.003Z,2.30
2022-10-21T03:55:14.936Z,2.03
2022-10-21T03:57:42.411Z,2.10
2022-10-21T04:00:10.622Z,2.17
2022-10-21T04:02:37.873Z,2.30
2022-10-21T04:05:05.562Z,2.40
2022-10-21T04:07:32.696Z,2.10
2022-10-21T04:09:59.755Z,2.20
2022-10-21T04:12:27.006Z,2.43
2022-10-21T04:14:54.272Z,1.95
2022-10-21T04:17:21.286Z,2.30
2022-10-21T04:19:48.430Z,2.23
2022-10-21T04:22:15.442Z,2.13
2022-10-21T04:24:42.392Z,2.23
2022-10-21T04:27:09.278Z,2.33
2022-10-21T04:29:36.219Z,2.30
2022-10-21T04:32:03.163Z,2.40
2022-10-21T04:34:30.112Z,2.00
2022-10-21T04:36:59.856Z,2.23
2022-10-21T04:39:29.519Z,2.40
2022-10-21T04:41:56.624Z,2.30
2022-10-21T04:44:23.896Z,2.33
2022-10-21T04:46:50.838Z,2.27
2022-10-21T04:49:17.903Z,2.60
2022-10-21T04:51:44.859Z,2.10
2022-10-21T04:54:13.680Z,1.97
2022-10-21T04:56:41.653Z,2.30
2022-10-21T04:59:09.019Z,2.50
2022-10-21T05:01:36.053Z,2.47
2022-10-21T05:04:03.080Z,2.37
2022-10-21T05:06:30.058Z,2.60
2022-10-21T05:08:57.215Z,2.00
2022-10-21T05:11:24.251Z,2.47
2022-10-21T05:13:51.248Z,2.40
2022-10-21T05:16:18.238Z,2.50
2022-10-21T05:18:45.285Z,1.90
2022-10-21T05:21:12.179Z,2.20
2022-10-21T05:23:39.092Z,2.33
2022-10-21T05:26:06.044Z,2.40
2022-10-21T05:28:33.009Z,2.17
2022-10-21T05:30:59.876Z,2.40
2022-10-21T05:33:26.932Z,2.50
2022-10-21T05:36:07.811Z,2.30
2022-10-21T05:38:35.409Z,2.40
2022-10-21T05:41:02.626Z,2.77
2022-10-21T05:43:29.644Z,2.10
2022-10-21T05:45:56.773Z,2.50
2022-10-21T05:48:24.642Z,2.13
2022-10-21T05:50:55.642Z,2.30
2022-10-21T05:53:29.913Z,2.37
2022-10-21T05:55:56.785Z,2.20
2022-10-21T05:58:24.891Z,2.67
2022-10-21T06:00:56.102Z,2.97
2022-10-21T06:03:24.626Z,3.10
2022-10-21T06:05:51.886Z,3.17
2022-10-21T06:08:18.882Z,3.40
2022-10-21T06:10:45.799Z,3.00
2022-10-21T06:13:12.869Z,3.63
2022-10-21T06:15:40.095Z,3.60
2022-10-21T06:18:07.189Z,3.77
2022-10-21T06:20:34.475Z,3.90
2022-10-21T06:23:01.511Z,3.40
2022-10-21T06:25:28.496Z,3.93
2022-10-21T06:27:55.448Z,3.30
2022-10-21T06:30:23.606Z,3.73
2022-10-21T06:32:51.327Z,3.87
2022-10-21T06:35:18.268Z,3.53
2022-10-21T06:37:45.428Z,4.00
2022-10-21T06:40:13.077Z,3.83
2022-10-21T06:42:40.127Z,3.80
2022-10-21T06:45:07.640Z,4.03
2022-10-21T06:47:34.648Z,3.63
2022-10-21T06:50:03.603Z,3.57
2022-10-21T06:52:31.942Z,4.10
2022-10-21T06:54:59.105Z,3.77
2022-10-21T06:57:27.780Z,4.00
2022-10-21T06:59:54.782Z,3.67
2022-10-21T07:02:24.257Z,3.57
2022-10-21T07:04:52.879Z,3.47
2022-10-21T07:07:20.377Z,3.80
2022-10-21T07:09:47.442Z,3.67
2022-10-21T07:12:14.437Z,3.90
2022-10-21T07:14:41.746Z,3.90
2022-10-21T07:17:08.985Z,3.40
2022-10-21T07:19:35.951Z,3.50
2022-10-21T07:22:02.956Z,3.60
2022-10-21T07:24:29.909Z,3.77
2022-10-21T07:26:56.941Z,3.27
2022-10-21T07:29:23.963Z,3.70
2022-10-21T07:31:51.246Z,3.23
2022-10-21T07:34:19.044Z,3.73
2022-10-21T07:36:53.018Z,4.03
2022-10-21T07:39:26.001Z,3.73
2022-10-21T07:41:55.977Z,3.67
2022-10-21T07:44:24.957Z,3.73
2022-10-21T07:46:53.096Z,3.63
2022-10-21T07:49:22.360Z,3.40
2022-10-21T07:51:50.574Z,3.40
2022-10-21T07:54:18.673Z,3.40
2022-10-21T07:56:48.770Z,3.80
2022-10-21T07:59:17.224Z,3.60
2022-10-21T08:01:45.891Z,3.80
2022-10-21T08:04:17.779Z,3.67
2022-10-21T08:06:46.419Z,3.70
2022-10-21T08:09:14.967Z,3.30
2022-10-21T08:11:42.209Z,3.43
2022-10-21T08:14:10.450Z,3.93
2022-10-21T08:16:37.887Z,3.80
2022-10-21T08:19:05.884Z,4.03
2022-10-21T08:21:32.910Z,3.63
2022-10-21T08:24:02.231Z,4.00
2022-10-21T08:26:29.750Z,3.40
2022-10-21T08:31:31.251Z,3.60
2022-10-21T08:33:59.294Z,3.73
2022-10-21T08:36:27.566Z,3.70
2022-10-21T08:38:55.204Z,3.40
2022-10-21T08:41:45.619Z,3.73
2022-10-21T08:44:26.719Z,3.42
2022-10-21T08:47:11.817Z,3.07
2022-10-21T08:50:00.516Z,3.70
2022-10-21T08:52:56.514Z,3.63
2022-10-21T08:55:32.737Z,3.40
2022-10-21T08:58:01.243Z,3.50
2022-10-21T09:01:05.309Z,3.30
2022-10-21T09:03:48.550Z,3.20
2022-10-21T09:06:51.248Z,3.50
2022-10-21T09:09:41.566Z,3.10
2022-10-21T09:12:29.344Z,3.00
2022-10-21T09:15:50.971Z,3.67
2022-10-21T09:18:45.357Z,3.40
2022-10-21T09:21:33.803Z,3.17
2022-10-21T09:24:11.571Z,3.70
2022-10-21T09:27:05.582Z,3.53
2022-10-21T09:29:43.266Z,3.47
2022-10-21T09:32:22.325Z,2.83
2022-10-21T09:34:52.072Z,4.20
2022-10-21T09:37:25.977Z,3.00
2022-10-21T09:40:20.012Z,3.80
2022-10-21T09:42:50.720Z,3.20
2022-10-21T09:45:39.492Z,2.73
2022-10-21T09:48:22.805Z,3.23
2022-10-21T09:51:11.240Z,3.03
2022-10-21T09:53:54.002Z,3.00
2022-10-21T09:56:28.367Z,3.40
2022-10-21T09:59:17.887Z,2.90
2022-10-21T10:01:46.250Z,3.30
2022-10-21T10:04:33.908Z,3.80
2022-10-21T10:07:04.006Z,3.17
2022-10-21T10:09:37.272Z,3.13
2022-10-21T10:12:16.971Z,2.90
2022-10-21T10:14:46.382Z,3.03
2022-10-21T10:17:33.988Z,2.70
2022-10-21T10:20:20.321Z,3.00
2022-10-21T10:23:09.389Z,2.60
2022-10-21T10:25:39.138Z,3.37
2022-10-21T10:28:08.850Z,2.90
2022-10-21T10:30:41.763Z,2.70
2022-10-21T10:33:18.466Z,2.97
2022-10-21T10:35:51.802Z,2.90
2022-10-21T10:38:30.028Z,3.10
2022-10-21T10:41:11.938Z,2.93
2022-10-21T10:43:49.656Z,3.00
2022-10-21T10:46:37.710Z,3.07
2022-10-21T10:49:23.222Z,3.13
2022-10-21T10:52:14.230Z,2.77
2022-10-21T10:54:42.457Z,3.23
2022-10-21T10:57:17.578Z,2.93
2022-10-21T10:59:54.535Z,3.60
2022-10-21T11:02:40.235Z,3.50
2022-10-21T11:05:17.096Z,3.97
2022-10-21T11:07:45.387Z,3.53
2022-10-21T11:10:37.324Z,3.37
2022-10-21T11:13:10.771Z,3.40
2022-10-21T11:15:52.548Z,4.03
2022-10-21T11:18:26.023Z,3.17
2022-10-21T11:21:19.115Z,3.20
2022-10-21T11:24:10.769Z,4.00
2022-10-21T11:26:45.693Z,3.40
2022-10-21T11:29:36.804Z,3.20
2022-10-21T11:32:11.642Z,4.10
2022-10-21T11:34:41.743Z,3.60
2022-10-21T11:37:14.789Z,3.73
2022-10-21T11:40:28.126Z,3.30
2022-10-21T11:42:56.270Z,3.40
2022-10-21T11:45:23.450Z,3.30
2022-10-21T11:48:13.559Z,3.20
2022-10-21T11:50:54.525Z,3.80
2022-10-21T11:53:29.883Z,3.20
2022-10-21T11:56:27.074Z,3.40
2022-10-21T11:59:20.247Z,3.03
2022-10-21T12:01:58.637Z,3.63
2022-10-21T12:04:55.552Z,3.60
2022-10-21T12:07:59.963Z,3.30
2022-10-21T12:10:42.335Z,3.23
2022-10-21T12:13:41.467Z,3.30
2022-10-21T12:16:18.294Z,3.47
2022-10-21T12:18:54.171Z,3.43
2022-10-21T12:21:26.056Z,3.30
2022-10-21T12:24:11.199Z,2.77
2022-10-21T12:26:45.930Z,3.30
2022-10-21T12:29:25.050Z,3.10
2022-10-21T12:32:14.867Z,3.10
2022-10-21T12:34:42.326Z,3.10
2022-10-21T12:37:42.395Z,2.80
2022-10-21T12:40:29.356Z,3.17
2022-10-21T12:43:01.473Z,3.03
2022-10-21T12:45:31.791Z,3.30
2022-10-21T12:47:59.394Z,3.00
2022-10-21T12:50:31.041Z,3.30
2022-10-21T12:53:15.686Z,3.00
2022-10-21T12:55:51.328Z,3.00
2022-10-21T12:58:43.996Z,3.00
2022-10-21T13:01:39.239Z,3.10
2022-10-21T13:04:31.902Z,2.80
2022-10-21T13:07:04.034Z,3.00
2022-10-21T13:09:41.919Z,3.00
2022-10-21T13:12:08.877Z,2.83
2022-10-21T13:14:48.920Z,2.80
2022-10-21T13:17:22.089Z,2.93
2022-10-21T13:20:16.432Z,3.27
2022-10-21T13:22:45.397Z,3.00
2022-10-21T13:25:28.692Z,3.30
2022-10-21T13:28:06.141Z,3.33
2022-10-21T13:30:39.218Z,2.70
2022-10-21T13:33:49.774Z,3.30
2022-10-21T13:36:17.101Z,3.20
2022-10-21T13:38:53.681Z,3.00
2022-10-21T13:41:29.317Z,2.60
2022-10-21T13:44:09.297Z,2.90
2022-10-21T13:46:42.524Z,3.10
2022-10-21T13:49:32.740Z,2.77
2022-10-21T13:51:59.740Z,2.70
2022-10-21T13:54:27.035Z,3.30
2022-10-21T13:56:54.057Z,2.90
2022-10-21T13:59:27.230Z,3.00
2022-10-21T14:01:56.535Z,2.97
2022-10-21T14:04:27.388Z,2.60
2022-10-21T14:07:09.587Z,2.90
2022-10-21T14:09:42.482Z,3.20
2022-10-21T14:12:21.078Z,3.03
2022-10-21T14:14:48.473Z,2.70
2022-10-21T14:17:21.115Z,2.70
2022-10-21T14:20:04.770Z,2.70
2022-10-21T14:22:32.828Z,2.90
2022-10-21T14:25:04.212Z,2.80
2022-10-21T14:27:35.936Z,2.90
2022-10-21T14:30:07.087Z,2.57
2022-10-21T14:32:34.885Z,2.93
2022-10-21T14:35:10.908Z,2.90
2022-10-21T14:37:44.794Z,3.00
2022-10-21T14:40:33.235Z,3.00
2022-10-21T14:43:03.403Z,2.43
2022-10-21T14:45:36.195Z,2.90
2022-10-21T14:48:10.622Z,2.60
2022-10-21T14:50:40.159Z,2.90
2022-10-21T14:53:18.942Z,3.10
2022-10-21T14:55:54.837Z,2.80
2022-10-21T14:58:31.413Z,2.60
2022-10-21T15:01:04.687Z,3.03
2022-10-21T15:03:42.952Z,2.73
2022-10-21T15:06:23.427Z,2.57
2022-10-21T15:09:06.102Z,2.60
2022-10-21T15:11:38.815Z,2.63
2022-10-21T15:14:13.867Z,2.90
2022-10-21T15:16:49.313Z,3.00
2022-10-21T15:19:21.869Z,2.80
2022-10-21T15:21:56.694Z,2.80
2022-10-21T15:24:30.469Z,2.57
2022-10-21T15:26:59.696Z,3.00
2022-10-21T15:29:55.598Z,2.53
2022-10-21T15:32:26.841Z,2.60
2022-10-21T15:34:56.534Z,2.60
2022-10-21T15:37:23.598Z,2.50
2022-10-21T15:39:50.738Z,2.40
2022-10-21T15:42:19.344Z,2.77
2022-10-21T15:44:52.928Z,2.53
2022-10-21T15:47:20.798Z,2.77
2022-10-21T15:49:50.371Z,2.97
2022-10-21T15:52:19.888Z,2.97
2022-10-21T15:54:46.869Z,2.67
2022-10-21T15:57:23.773Z,2.63
2022-10-21T15:59:53.412Z,2.60
2022-10-21T16:02:20.530Z,2.63
2022-10-21T16:04:48.056Z,3.07
2022-10-21T16:07:19.845Z,2.47
2022-10-21T16:09:47.084Z,2.57
2022-10-21T16:12:18.084Z,2.50
2022-10-21T16:14:45.585Z,2.70
2022-10-21T16:17:15.670Z,2.20
2022-10-21T16:19:45.944Z,2.60
2022-10-21T16:22:36.071Z,2.47
2022-10-21T16:25:03.094Z,2.37
2022-10-21T16:27:43.802Z,2.90
2022-10-21T16:30:26.121Z,2.40
2022-10-21T16:32:53.250Z,2.70
2022-10-21T16:35:21.851Z,2.50
2022-10-21T16:37:51.181Z,2.27
2022-10-21T16:40:28.339Z,2.40
2022-10-21T16:42:55.778Z,2.83
2022-10-21T16:45:24.499Z,2.57
2022-10-21T16:47:57.015Z,2.23
2022-10-21T16:50:37.464Z,2.40
2022-10-21T16:53:05.841Z,2.40
2022-10-21T16:55:35.819Z,2.40
2022-10-21T16:58:03.723Z,2.50
2022-10-21T17:00:48.672Z,2.53
2022-10-21T17:03:17.482Z,2.30
2022-10-21T17:05:45.215Z,2.33
2022-10-21T17:08:12.147Z,2.60
2022-10-21T17:10:39.233Z,2.03
2022-10-21T17:13:06.625Z,2.50
2022-10-21T17:15:40.825Z,2.90
2022-10-21T17:18:21.339Z,2.50
2022-10-21T17:20:53.410Z,2.40
2022-10-21T17:23:26.113Z,2.60
2022-10-21T17:25:53.668Z,2.53
2022-10-21T17:28:20.816Z,3.00
2022-10-21T17:30:53.737Z,2.27
2022-10-21T17:33:25.055Z,2.30
2022-10-21T17:35:52.209Z,2.43
2022-10-21T17:38:19.257Z,2.40
2022-10-21T17:40:47.127Z,2.67
2022-10-21T17:43:21.012Z,2.70
2022-10-21T17:45:52.357Z,2.70
2022-10-21T17:48:20.502Z,2.20
2022-10-21T17:50:55.250Z,2.50
2022-10-21T17:53:22.550Z,2.30
2022-10-21T17:56:04.873Z,2.40
2022-10-21T17:58:32.322Z,2.10
2022-10-21T18:00:59.504Z,2.17
2022-10-21T18:03:32.638Z,2.33
2022-10-21T18:06:00.088Z,2.33
2022-10-21T18:08:27.250Z,2.47
2022-10-21T18:10:57.406Z,2.23
2022-10-21T18:13:26.105Z,2.20
2022-10-21T18:18:35.557Z,2.40
2022-10-21T18:21:26.327Z,2.17
2022-10-21T18:24:06.445Z,2.00
2022-10-21T18:26:38.788Z,2.33
2022-10-21T18:29:16.110Z,2.50
2022-10-21T18:31:53.974Z,2.30
2022-10-21T18:34:22.018Z,2.27
2022-10-21T18:36:49.511Z,2.63
2022-10-21T18:39:19.646Z,2.20
2022-10-21T18:41:48.646Z,2.33
2022-10-21T18:44:18.591Z,2.43
2022-10-21T18:46:56.058Z,2.50
2022-10-21T18:49:24.611Z,2.20
2022-10-21T18:51:51.815Z,2.20
2022-10-21T18:54:19.384Z,2.37
2022-10-21T18:56:46.362Z,2.27
2022-10-21T18:59:15.276Z,2.20
2022-10-21T19:01:44.514Z,2.50
2022-10-21T19:06:43.183Z,2.20
2022-10-21T19:09:17.164Z,2.00
2022-10-21T19:11:45.237Z,2.20
2022-10-21T19:14:14.344Z,2.50
2022-10-21T19:16:46.271Z,2.43
2022-10-21T19:19:20.708Z,2.00
2022-10-21T19:21:47.954Z,2.50
2022-10-21T19:24:16.116Z,2.10
2022-10-21T19:26:46.635Z,2.37
2022-10-21T19:29:17.691Z,2.40
2022-10-21T19:34:20.317Z,1.97
2022-10-21T19:36:48.903Z,2.13
2022-10-21T19:39:16.800Z,2.30
2022-10-21T19:41:44.648Z,1.90
2022-10-21T19:44:17.986Z,2.00
2022-10-21T19:46:45.615Z,2.17
2022-10-21T19:49:17.777Z,2.10
2022-10-21T19:51:45.241Z,2.10
2022-10-21T19:54:13.929Z,2.20
2022-10-21T19:56:42.026Z,2.10
2022-10-21T19:59:10.321Z,2.10
2022-10-21T20:01:45.523Z,1.90
2022-10-21T20:04:13.209Z,2.03
2022-10-21T20:06:42.747Z,2.10
2022-10-21T20:09:14.744Z,2.10
2022-10-21T20:11:46.018Z,2.43
2022-10-21T20:14:14.090Z,2.40
2022-10-21T20:16:44.669Z,2.20
2022-10-21T20:19:12.997Z,1.80
2022-10-21T20:21:43.430Z,2.10
2022-10-21T20:24:17.962Z,2.13
2022-10-21T20:26:50.305Z,2.10
2022-10-21T20:29:19.028Z,2.00
2022-10-21T20:31:46.700Z,2.20
2022-10-21T20:34:15.652Z,2.40
2022-10-21T20:36:43.646Z,2.53
2022-10-21T20:39:11.312Z,2.07
2022-10-21T20:41:39.804Z,2.27
2022-10-21T20:44:11.445Z,2.10
2022-10-21T20:46:39.871Z,2.47
2022-10-21T20:49:11.319Z,1.90
2022-10-21T20:51:42.638Z,2.20
2022-10-21T20:54:16.454Z,2.00
2022-10-21T20:56:46.925Z,2.13
2022-10-21T20:59:15.575Z,1.80
2022-10-21T21:01:45.507Z,2.13
2022-10-21T21:04:15.356Z,2.00
2022-10-21T21:06:53.968Z,2.27
2022-10-21T21:10:00.980Z,2.20
2022-10-21T21:12:10.255Z,2.20
2022-10-21T21:14:38.499Z,2.03
2022-10-21T21:17:05.602Z,2.00
2022-10-21T21:19:32.871Z,1.93
2022-10-21T21:21:59.984Z,2.20
2022-10-21T21:24:27.338Z,2.17
2022-10-21T21:27:08.088Z,2.00
2022-10-21T21:29:35.810Z,1.77
2022-10-21T21:32:04.925Z,2.47
2022-10-21T21:34:31.951Z,1.90
2022-10-21T21:36:59.801Z,2.00
2022-10-21T21:39:27.155Z,1.90
2022-10-21T21:42:00.183Z,1.80
2022-10-21T21:44:27.390Z,1.87
2022-10-21T21:46:54.439Z,2.10
2022-10-21T21:49:22.000Z,2.00
2022-10-21T21:51:52.403Z,1.90
2022-10-21T21:54:19.478Z,1.80
2022-10-21T21:56:50.198Z,1.90
2022-10-21T21:59:21.380Z,2.00
2022-10-21T22:01:48.995Z,2.10
2022-10-21T22:04:16.920Z,2.00
2022-10-21T22:06:44.003Z,2.20
2022-10-21T22:09:13.039Z,2.00
2022-10-21T22:14:24.896Z,2.20
2022-10-21T22:16:51.913Z,1.90
2022-10-21T22:22:13.712Z,2.10
2022-10-21T22:24:41.298Z,1.80
2022-10-21T22:27:14.522Z,1.90
2022-10-21T22:29:45.825Z,2.10
2022-10-21T22:32:12.904Z,2.00
2022-10-21T22:34:42.198Z,2.20
2022-10-21T22:37:10.201Z,2.10
2022-10-21T22:39:37.169Z,2.00
2022-10-21T22:42:09.437Z,1.60
2022-10-21T22:44:45.812Z,1.97
2022-10-21T22:47:12.768Z,2.03
2022-10-21T22:49:52.179Z,1.93
2022-10-21T22:55:05.326Z,2.30
2022-10-21T22:57:32.285Z,2.07
2022-10-21T23:00:11.476Z,2.20
2022-10-21T23:02:41.589Z,1.80
2022-10-21T23:05:08.973Z,2.10
2022-10-21T23:07:36.314Z,1.93
2022-10-21T23:10:14.624Z,1.83
2022-10-21T23:12:41.997Z,1.97
2022-10-21T23:15:13.717Z,2.00
2022-10-21T23:17:40.579Z,2.00
2022-10-21T23:20:12.670Z,2.00
2022-10-21T23:22:40.103Z,2.30
2022-10-21T23:25:08.493Z,1.97
2022-10-21T23:27:35.398Z,1.80
2022-10-21T23:30:02.269Z,1.60
2022-10-21T23:32:32.004Z,1.90
2022-10-21T23:34:59.916Z,1.60
2022-10-21T23:37:27.125Z,1.90
2022-10-21T23:39:54.298Z,2.03
2022-10-21T23:42:26.523Z,1.90
2022-10-21T23:44:53.402Z,2.00
2022-10-21T23:47:24.979Z,1.83
2022-10-21T23:49:51.870Z,2.10
2022-10-21T23:55:08.829Z,1.80
2022-10-21T23:57:37.666Z,1.90
